Time,TemperatureF,DewpointF,PressureIn,WindDirection,WindDirectionDegrees,WindSpeedMPH,WindSpeedGustMPH,Humidity,HourlyPrecipIn,Conditions,Clouds,dailyrainin,SolarRadiationWatts/m^2,SoftwareType,DateUTC
2013-05-17 00:00:00,69.4,58.0,29.99,SW,216,0.0,0.0,67,0.00,,,0.00,0,Wunderground v.1.15,2013-05-17 04:00:00,
2013-05-17 00:10:00,68.9,57.9,29.99,SW,216,0.0,3.0,68,0.00,,,0.00,0,Wunderground v.1.15,2013-05-17 04:10:00,
2013-05-17 00:20:00,68.6,58.4,29.99,SW,216,0.0,3.0,70,0.00,,,0.00,0,Wunderground v.1.15,2013-05-17 04:20:00,
2013-05-17 00:30:00,68.1,58.3,29.99,SW,216,0.0,3.0,71,0.00,,,0.00,0,Wunderground v.1.15,2013-05-17 04:30:00,
2013-05-17 00:40:00,67.6,57.5,29.99,SW,216,0.0,0.0,70,0.00,,,0.00,0,Wunderground v.1.15,2013-05-17 04:40:00,
2013-05-17 00:50:00,67.1,57.4,29.99,SW,216,0.0,0.0,71,0.00,,,0.00,0,Wunderground v.1.15,2013-05-17 04:50:00,
2013-05-17 01:00:00,66.9,57.2,29.99,SW,216,0.0,0.0,71,0.00,,,0.00,0,Wunderground v.1.15,2013-05-17 05:00:00,
2013-05-17 01:10:00,67.1,57.4,29.99,SW,216,0.0,0.0,71,0.00,,,0.00,0,Wunderground v.1.15,2013-05-17 05:10:00,
2013-05-17 01:20:00,66.8,57.9,29.99,SW,216,0.0,0.0,73,0.00,,,0.00,0,Wunderground v.1.15,2013-05-17 05:20:00,
2013-05-17 01:30:00,66.3,57.8,29.99,SW,216,0.0,0.0,74,0.00,,,0.00,0,Wunderground v.1.15,2013-05-17 05:30:00,
2013-05-17 01:40:00,65.6,57.1,29.99,SW,216,0.0,0.0,74,0.00,,,0.00,0,Wunderground v.1.15,2013-05-17 05:40:00,
2013-05-17 01:50:00,65.5,57.0,29.99,SW,216,0.0,0.0,74,0.00,,,0.00,0,Wunderground v.1.15,2013-05-17 05:50:00,
2013-05-17 02:00:00,65.2,57.4,30.00,SW,216,0.0,0.0,76,0.00,,,0.00,0,Wunderground v.1.15,2013-05-17 06:00:00,
2013-05-17 02:10:00,64.7,57.0,29.99,SW,216,0.0,0.0,76,0.00,,,0.00,0,Wunderground v.1.15,2013-05-17 06:10:00,
2013-05-17 02:20:00,64.3,56.9,29.99,SW,216,0.0,0.0,77,0.00,,,0.00,0,Wunderground v.1.15,2013-05-17 06:20:00,
2013-05-17 02:30:00,64.0,57.0,29.99,SW,216,0.0,0.0,78,0.00,,,0.00,0,Wunderground v.1.15,2013-05-17 06:30:00,
2013-05-17 02:40:00,63.9,57.3,29.99,SW,216,0.0,0.0,79,0.00,,,0.00,0,Wunderground v.1.15,2013-05-17 06:40:00,
2013-05-17 02:50:00,63.9,56.9,29.99,SW,216,0.0,0.0,78,0.00,,,0.00,0,Wunderground v.1.15,2013-05-17 06:50:00,
2013-05-17 03:00:00,63.9,57.3,29.99,SW,216,0.0,0.0,79,0.00,,,0.00,0,Wunderground v.1.15,2013-05-17 07:00:00,
2013-05-17 03:10:00,63.5,57.2,29.99,SW,216,0.0,2.0,80,0.00,,,0.00,0,Wunderground v.1.15,2013-05-17 07:10:00,
2013-05-17 03:21:00,63.4,57.1,29.99,SW,216,0.0,2.0,80,0.00,,,0.00,0,Wunderground v.1.15,2013-05-17 07:21:00,
2013-05-17 03:30:00,63.2,57.3,29.99,SW,216,0.0,2.0,81,0.00,,,0.00,0,Wunderground v.1.15,2013-05-17 07:30:00,
2013-05-17 03:40:00,62.9,57.0,30.00,SW,216,0.0,0.0,81,0.00,,,0.00,0,Wunderground v.1.15,2013-05-17 07:40:00,
2013-05-17 03:50:00,62.6,57.0,30.00,SW,216,0.0,0.0,82,0.00,,,0.00,0,Wunderground v.1.15,2013-05-17 07:50:00,
2013-05-17 04:00:00,62.4,56.8,30.00,SW,216,0.0,0.0,82,0.00,,,0.00,0,Wunderground v.1.15,2013-05-17 08:00:00,
2013-05-17 04:10:00,62.3,57.1,30.00,SW,216,0.0,0.0,83,0.00,,,0.00,0,Wunderground v.1.15,2013-05-17 08:10:00,
2013-05-17 04:20:00,62.3,57.4,30.00,SW,216,0.0,0.0,84,0.00,,,0.00,0,Wunderground v.1.15,2013-05-17 08:20:00,
2013-05-17 04:30:00,62.1,57.2,30.00,SW,216,0.0,0.0,84,0.00,,,0.00,0,Wunderground v.1.15,2013-05-17 08:30:00,
2013-05-17 04:40:00,62.0,57.1,30.00,SW,216,0.0,0.0,84,0.00,,,0.00,0,Wunderground v.1.15,2013-05-17 08:40:00,
2013-05-17 04:50:00,61.8,57.2,30.00,SW,216,0.0,0.0,85,0.00,,,0.00,0,Wunderground v.1.15,2013-05-17 08:50:00,
2013-05-17 05:00:00,61.8,57.6,30.01,SW,216,0.0,0.0,86,0.00,,,0.00,0,Wunderground v.1.15,2013-05-17 09:00:00,
2013-05-17 05:10:00,61.8,57.6,30.01,SW,216,0.0,0.0,86,0.00,,,0.00,0,Wunderground v.1.15,2013-05-17 09:10:00,
2013-05-17 05:20:00,61.5,57.3,30.01,SW,216,0.0,0.0,86,0.00,,,0.00,0,Wunderground v.1.15,2013-05-17 09:20:00,
2013-05-17 05:30:00,61.5,57.3,30.01,SW,216,0.0,0.0,86,0.00,,,0.00,0,Wunderground v.1.15,2013-05-17 09:30:00,
2013-05-17 05:40:00,61.5,57.6,30.02,SW,216,0.0,0.0,87,0.00,,,0.00,0,Wunderground v.1.15,2013-05-17 09:40:00,
2013-05-17 05:50:00,61.6,57.7,30.02,SW,216,0.0,0.0,87,0.00,,,0.00,0,Wunderground v.1.15,2013-05-17 09:50:00,
2013-05-17 06:00:00,61.6,57.7,30.02,SW,216,0.0,0.0,87,0.00,,,0.00,0,Wunderground v.1.15,2013-05-17 10:00:00,
2013-05-17 06:10:00,61.8,57.9,30.02,SW,216,0.0,0.0,87,0.00,,,0.00,0,Wunderground v.1.15,2013-05-17 10:10:00,
2013-05-17 06:20:00,62.0,58.1,30.02,SW,216,0.0,0.0,87,0.00,,,0.00,0,Wunderground v.1.15,2013-05-17 10:20:00,
2013-05-17 06:30:00,62.1,57.9,30.02,SW,216,0.0,0.0,86,0.00,,,0.00,0,Wunderground v.1.15,2013-05-17 10:30:00,
2013-05-17 06:40:00,62.4,58.2,30.02,SW,216,0.0,0.0,86,0.00,,,0.00,0,Wunderground v.1.15,2013-05-17 10:40:00,
2013-05-17 06:50:00,62.6,58.4,30.02,SW,216,0.0,0.0,86,0.00,,,0.00,0,Wunderground v.1.15,2013-05-17 10:50:00,
2013-05-17 07:00:00,62.9,58.6,30.03,SW,216,0.0,0.0,86,0.00,,,0.00,7,Wunderground v.1.15,2013-05-17 11:00:00,
2013-05-17 07:10:00,63.1,58.8,30.03,SW,216,0.0,0.0,86,0.00,,,0.00,11,Wunderground v.1.15,2013-05-17 11:10:00,
2013-05-17 07:20:00,63.4,59.1,30.03,SW,216,0.0,0.0,86,0.00,,,0.00,16,Wunderground v.1.15,2013-05-17 11:20:00,
2013-05-17 07:30:00,63.7,59.8,30.03,SW,216,0.0,0.0,87,0.00,,,0.00,21,Wunderground v.1.15,2013-05-17 11:30:00,
2013-05-17 07:40:00,64.0,60.1,30.04,NNE,22,0.0,0.0,87,0.00,,,0.00,23,Wunderground v.1.15,2013-05-17 11:40:00,
2013-05-17 07:50:00,64.3,60.3,30.04,NNE,22,0.0,0.0,87,0.00,,,0.00,18,Wunderground v.1.15,2013-05-17 11:50:00,
2013-05-17 08:00:00,64.5,60.9,30.04,NNE,22,0.0,0.0,88,0.00,,,0.00,26,Wunderground v.1.15,2013-05-17 12:00:00,
2013-05-17 08:10:00,64.5,60.5,30.05,NNE,22,0.0,3.0,87,0.00,,,0.00,18,Wunderground v.1.15,2013-05-17 12:10:00,
2013-05-17 08:20:00,64.7,60.7,30.05,NNE,22,0.0,3.0,87,0.00,,,0.00,23,Wunderground v.1.15,2013-05-17 12:20:00,
2013-05-17 08:30:00,64.8,60.5,30.04,NNE,22,0.0,3.0,86,0.00,,,0.00,53,Wunderground v.1.15,2013-05-17 12:30:00,
2013-05-17 08:40:00,65.0,60.7,30.05,NNE,22,0.0,0.0,86,0.00,,,0.00,79,Wunderground v.1.15,2013-05-17 12:40:00,
2013-05-17 08:50:00,65.3,60.3,30.05,NNE,22,0.0,0.0,84,0.00,,,0.00,47,Wunderground v.1.15,2013-05-17 12:50:00,
2013-05-17 09:00:00,65.6,60.6,30.05,NNE,22,0.0,0.0,84,0.00,,,0.00,46,Wunderground v.1.15,2013-05-17 13:00:00,
2013-05-17 09:10:00,65.8,60.5,30.05,NNE,22,0.0,3.0,83,0.00,,,0.00,42,Wunderground v.1.15,2013-05-17 13:10:00,
2013-05-17 09:20:00,66.0,60.7,30.05,NNE,22,0.0,3.0,83,0.00,,,0.00,65,Wunderground v.1.15,2013-05-17 13:20:00,
2013-05-17 09:30:00,66.3,60.6,30.05,NNE,22,0.0,3.0,82,0.00,,,0.00,69,Wunderground v.1.15,2013-05-17 13:30:00,
2013-05-17 09:40:00,66.4,60.7,30.05,NNE,22,0.0,0.0,82,0.00,,,0.00,91,Wunderground v.1.15,2013-05-17 13:40:00,
2013-05-17 09:50:00,66.9,61.2,30.05,NNE,22,0.0,0.0,82,0.00,,,0.00,116,Wunderground v.1.15,2013-05-17 13:50:00,
2013-05-17 10:00:00,67.4,61.0,30.05,NNE,22,0.0,0.0,80,0.00,,,0.00,125,Wunderground v.1.15,2013-05-17 14:00:00,
2013-05-17 10:10:00,67.9,60.8,30.06,ENE,78,1.0,1.0,78,0.00,,,0.00,79,Wunderground v.1.15,2013-05-17 14:10:00,
2013-05-17 10:20:00,68.4,59.8,30.06,East,79,0.0,0.0,74,0.00,,,0.00,172,Wunderground v.1.15,2013-05-17 14:20:00,
2013-05-17 10:30:00,69.1,59.7,30.06,SSE,152,1.0,2.0,72,0.00,,,0.00,125,Wunderground v.1.15,2013-05-17 14:30:00,
2013-05-17 10:40:00,69.6,59.8,30.07,SSE,152,0.0,0.0,71,0.00,,,0.00,174,Wunderground v.1.15,2013-05-17 14:40:00,
2013-05-17 10:50:00,70.4,60.5,30.07,SSE,152,1.0,1.0,71,0.00,,,0.00,165,Wunderground v.1.15,2013-05-17 14:50:00,
2013-05-17 11:00:00,70.9,60.2,30.07,SSE,157,0.0,1.0,69,0.00,,,0.00,178,Wunderground v.1.15,2013-05-17 15:00:00,
2013-05-17 11:10:00,71.1,60.0,30.06,South,179,1.0,1.0,68,0.00,,,0.00,229,Wunderground v.1.15,2013-05-17 15:10:00,
2013-05-17 11:20:00,71.8,60.7,30.06,South,179,1.0,1.0,68,0.00,,,0.00,346,Wunderground v.1.15,2013-05-17 15:20:00,
2013-05-17 11:30:00,72.3,60.7,30.06,South,171,2.0,2.0,67,0.00,,,0.00,230,Wunderground v.1.15,2013-05-17 15:30:00,
2013-05-17 11:40:00,72.7,60.7,30.07,South,171,1.0,5.0,66,0.00,,,0.00,216,Wunderground v.1.15,2013-05-17 15:40:00,
2013-05-17 11:50:00,73.0,61.0,30.07,SSW,213,2.0,2.0,66,0.00,,,0.00,269,Wunderground v.1.15,2013-05-17 15:50:00,
2013-05-17 12:00:00,73.3,61.7,30.07,SSW,202,2.0,3.0,67,0.00,,,0.00,246,Wunderground v.1.15,2013-05-17 16:00:00,
2013-05-17 12:10:00,73.5,61.4,30.07,WSW,245,2.0,6.0,66,0.00,,,0.00,255,Wunderground v.1.15,2013-05-17 16:10:00,
2013-05-17 12:20:00,73.5,61.9,30.07,WSW,256,1.0,6.0,67,0.00,,,0.00,220,Wunderground v.1.15,2013-05-17 16:20:00,
2013-05-17 12:30:00,73.5,61.4,30.06,SSE,159,1.0,1.0,66,0.00,,,0.00,257,Wunderground v.1.15,2013-05-17 16:30:00,
2013-05-17 12:40:00,73.9,62.2,30.06,SSW,211,1.0,2.0,67,0.00,,,0.00,338,Wunderground v.1.15,2013-05-17 16:40:00,
2013-05-17 13:00:00,75.6,63.0,30.05,SSE,163,2.0,5.0,65,0.00,,,0.00,439,Wunderground v.1.15,2013-05-17 17:00:00,
2013-05-17 13:10:00,76.0,62.5,30.05,South,169,4.0,4.0,63,0.00,,,0.00,441,Wunderground v.1.15,2013-05-17 17:10:00,
2013-05-17 13:20:00,76.5,64.3,30.05,SSE,164,3.0,6.0,66,0.00,,,0.00,728,Wunderground v.1.15,2013-05-17 17:20:00,
2013-05-17 13:30:00,77.6,64.0,30.04,South,186,3.0,6.0,63,0.00,,,0.00,373,Wunderground v.1.15,2013-05-17 17:30:00,
2013-05-17 13:40:00,77.7,63.6,30.04,SSW,204,3.0,4.0,62,0.00,,,0.00,380,Wunderground v.1.15,2013-05-17 17:40:00,
2013-05-17 13:50:00,78.3,62.8,30.04,South,175,3.0,3.0,59,0.00,,,0.00,540,Wunderground v.1.15,2013-05-17 17:50:00,
2013-05-17 14:00:00,78.6,62.1,30.04,SSE,150,3.0,4.0,57,0.00,,,0.00,360,Wunderground v.1.15,2013-05-17 18:00:00,
2013-05-17 14:10:00,78.5,62.5,30.04,SE,141,5.0,8.0,58,0.00,,,0.00,334,Wunderground v.1.15,2013-05-17 18:10:00,
2013-05-17 14:20:00,78.3,62.3,30.04,South,181,4.0,4.0,58,0.00,,,0.00,243,Wunderground v.1.15,2013-05-17 18:20:00,
2013-05-17 14:30:00,78.6,62.6,30.03,SSW,200,2.0,8.0,58,0.00,,,0.00,346,Wunderground v.1.15,2013-05-17 18:30:00,
2013-05-17 14:40:00,78.8,62.8,30.02,SSE,162,4.0,5.0,58,0.00,,,0.00,239,Wunderground v.1.15,2013-05-17 18:40:00,
2013-05-17 14:50:00,78.6,61.6,30.02,South,184,6.0,6.0,56,0.00,,,0.00,279,Wunderground v.1.15,2013-05-17 18:50:00,
2013-05-17 15:00:00,78.3,61.8,30.02,South,190,6.0,8.0,57,0.00,,,0.00,214,Wunderground v.1.15,2013-05-17 19:00:00,
2013-05-17 15:10:00,78.1,62.6,30.01,SSE,157,4.0,9.0,59,0.00,,,0.00,158,Wunderground v.1.15,2013-05-17 19:10:00,
2013-05-17 15:20:00,77.9,60.4,30.01,SSW,196,4.0,9.0,55,0.00,,,0.00,142,Wunderground v.1.15,2013-05-17 19:20:00,
2013-05-17 15:30:00,77.9,60.4,30.01,South,179,7.0,7.0,55,0.00,,,0.00,232,Wunderground v.1.15,2013-05-17 19:30:00,
2013-05-17 15:40:00,78.5,61.0,30.01,South,174,6.0,6.0,55,0.00,,,0.00,352,Wunderground v.1.15,2013-05-17 19:40:00,
2013-05-17 15:50:00,79.6,62.5,30.01,South,179,5.0,6.0,56,0.00,,,0.00,445,Wunderground v.1.15,2013-05-17 19:50:00,
2013-05-17 16:00:00,79.6,61.0,30.01,SSW,198,7.0,7.0,53,0.00,,,0.00,378,Wunderground v.1.15,2013-05-17 20:00:00,
2013-05-17 16:10:00,79.2,61.1,30.00,SW,214,5.0,12.0,54,0.00,,,0.00,281,Wunderground v.1.15,2013-05-17 20:10:00,
2013-05-17 16:20:00,78.8,60.2,30.00,South,170,6.0,6.0,53,0.00,,,0.00,241,Wunderground v.1.15,2013-05-17 20:20:00,
2013-05-17 16:30:00,79.0,60.9,30.00,South,174,5.0,12.0,54,0.00,,,0.00,234,Wunderground v.1.15,2013-05-17 20:30:00,
2013-05-17 16:40:00,79.0,60.4,29.99,South,169,6.0,6.0,53,0.00,,,0.00,102,Wunderground v.1.15,2013-05-17 20:40:00,
2013-05-17 16:50:00,78.3,60.3,29.99,South,184,6.0,6.0,54,0.00,,,0.00,91,Wunderground v.1.15,2013-05-17 20:50:00,
2013-05-17 17:00:00,78.3,60.3,29.99,South,186,5.0,5.0,54,0.00,,,0.00,97,Wunderground v.1.15,2013-05-17 21:00:00,
2013-05-17 17:10:00,78.1,60.6,29.99,SSW,194,4.0,14.0,55,0.00,,,0.00,123,Wunderground v.1.15,2013-05-17 21:10:00,
2013-05-17 17:20:00,78.3,62.3,29.99,SSW,194,2.0,14.0,58,0.00,,,0.00,246,Wunderground v.1.15,2013-05-17 21:20:00,
2013-05-17 17:30:00,78.5,61.5,29.99,SW,225,3.0,14.0,56,0.00,,,0.00,95,Wunderground v.1.15,2013-05-17 21:30:00,
2013-05-17 17:40:00,78.3,61.3,29.99,SSW,198,3.0,3.0,56,0.00,,,0.00,40,Wunderground v.1.15,2013-05-17 21:40:00,
2013-05-17 17:50:00,77.7,61.7,29.99,SSW,201,3.0,3.0,58,0.00,,,0.00,49,Wunderground v.1.15,2013-05-17 21:50:00,
2013-05-17 18:00:00,77.4,62.9,29.99,SSW,196,2.0,2.0,61,0.00,,,0.00,53,Wunderground v.1.15,2013-05-17 22:00:00,
2013-05-17 18:10:00,76.8,62.8,29.99,SSW,196,1.0,1.0,62,0.00,,,0.00,35,Wunderground v.1.15,2013-05-17 22:10:00,
2013-05-17 18:20:00,76.3,62.8,29.99,SSW,196,1.0,1.0,63,0.00,,,0.00,32,Wunderground v.1.15,2013-05-17 22:20:00,
2013-05-17 18:30:00,76.0,62.9,29.99,SSW,196,0.0,12.0,64,0.00,,,0.00,32,Wunderground v.1.15,2013-05-17 22:30:00,
2013-05-17 18:40:00,75.6,62.6,29.99,SSW,196,1.0,3.0,64,0.00,,,0.00,46,Wunderground v.1.15,2013-05-17 22:40:00,
2013-05-17 18:50:00,75.4,62.8,29.99,SSW,198,2.0,2.0,65,0.00,,,0.00,51,Wunderground v.1.15,2013-05-17 22:50:00,
2013-05-17 19:00:00,75.3,63.6,29.99,SSW,202,1.0,1.0,67,0.00,,,0.00,37,Wunderground v.1.15,2013-05-17 23:00:00,
2013-05-17 19:10:00,74.9,63.2,29.99,SW,235,2.0,2.0,67,0.00,,,0.00,30,Wunderground v.1.15,2013-05-17 23:10:00,
2013-05-17 19:20:00,74.7,63.0,29.99,SSW,199,1.0,1.0,67,0.00,,,0.00,26,Wunderground v.1.15,2013-05-17 23:20:00,
2013-05-17 19:30:00,74.6,63.3,29.99,SSW,199,0.0,9.0,68,0.00,,,0.00,25,Wunderground v.1.15,2013-05-17 23:30:00,
2013-05-17 19:40:00,74.2,63.4,29.99,WSW,237,0.0,0.0,69,0.00,,,0.00,18,Wunderground v.1.15,2013-05-17 23:40:00,
2013-05-17 19:50:00,74.0,64.0,29.99,WSW,240,1.0,1.0,71,0.00,,,0.00,12,Wunderground v.1.15,2013-05-17 23:50:00,
2013-05-17 20:00:00,73.9,64.7,29.99,WSW,240,0.0,0.0,73,0.00,,,0.00,7,Wunderground v.1.15,2013-05-18 00:00:00,
2013-05-17 20:10:00,73.2,64.4,29.99,WSW,240,0.0,6.0,74,0.00,,,0.00,7,Wunderground v.1.15,2013-05-18 00:10:00,
2013-05-17 20:21:00,72.7,63.9,29.99,WSW,240,0.0,6.0,74,0.00,,,0.00,0,Wunderground v.1.15,2013-05-18 00:21:00,
2013-05-17 20:30:00,72.5,64.9,29.99,WSW,240,1.0,1.0,77,0.00,,,0.00,0,Wunderground v.1.15,2013-05-18 00:30:00,
2013-05-17 20:40:00,71.8,64.2,30.00,WSW,240,0.0,0.0,77,0.00,,,0.00,0,Wunderground v.1.15,2013-05-18 00:40:00,
2013-05-17 20:50:00,71.3,63.7,30.00,WSW,240,0.0,0.0,77,0.00,,,0.00,0,Wunderground v.1.15,2013-05-18 00:50:00,
2013-05-17 21:00:00,70.8,63.2,30.00,WSW,240,0.0,0.0,77,0.00,,,0.00,0,Wunderground v.1.15,2013-05-18 01:00:00,
2013-05-17 21:10:00,70.4,63.6,30.01,WSW,240,0.0,6.0,79,0.00,,,0.00,0,Wunderground v.1.15,2013-05-18 01:10:00,
2013-05-17 21:20:00,69.9,63.1,30.01,WSW,240,0.0,6.0,79,0.00,,,0.00,0,Wunderground v.1.15,2013-05-18 01:20:00,
2013-05-17 21:30:00,69.6,63.5,30.01,WSW,240,0.0,6.0,81,0.00,,,0.01,0,Wunderground v.1.15,2013-05-18 01:30:00,
2013-05-17 21:40:00,69.1,63.4,30.01,WSW,240,0.0,0.0,82,0.00,,,0.01,0,Wunderground v.1.15,2013-05-18 01:40:00,
2013-05-17 21:50:00,68.6,63.6,30.01,WSW,240,0.0,0.0,84,0.00,,,0.02,0,Wunderground v.1.15,2013-05-18 01:50:00,
2013-05-17 22:00:00,68.1,63.8,30.02,WSW,240,0.0,0.0,86,0.00,,,0.02,0,Wunderground v.1.15,2013-05-18 02:00:00,
2013-05-17 22:10:00,67.8,64.1,30.02,SSE,165,0.0,5.0,88,0.00,,,0.03,0,Wunderground v.1.15,2013-05-18 02:10:00,
2013-05-17 22:20:00,67.9,64.5,30.02,South,187,3.0,5.0,89,0.00,,,0.03,0,Wunderground v.1.15,2013-05-18 02:20:00,
2013-05-17 22:30:00,67.8,64.1,30.02,SSW,203,4.0,6.0,88,0.00,,,0.03,0,Wunderground v.1.15,2013-05-18 02:30:00,
2013-05-17 22:40:00,67.6,63.9,30.02,SSW,197,3.0,5.0,88,0.00,,,0.04,0,Wunderground v.1.15,2013-05-18 02:40:00,
2013-05-17 22:50:00,67.6,64.2,30.02,South,184,1.0,4.0,89,0.00,,,0.04,0,Wunderground v.1.15,2013-05-18 02:50:00,
2013-05-17 23:00:00,67.4,64.0,30.03,South,188,2.0,2.0,89,0.00,,,0.04,0,Wunderground v.1.15,2013-05-18 03:00:00,
2013-05-17 23:10:00,67.1,63.7,30.03,SSW,192,2.0,9.0,89,0.00,,,0.04,0,Wunderground v.1.15,2013-05-18 03:10:00,
2013-05-17 23:20:00,66.9,63.6,30.03,SSW,192,1.0,1.0,89,0.00,,,0.04,0,Wunderground v.1.15,2013-05-18 03:20:00,
2013-05-17 23:30:00,66.8,63.5,30.04,SSW,192,1.0,9.0,89,0.00,,,0.04,0,Wunderground v.1.15,2013-05-18 03:30:00,
2013-05-17 23:40:00,66.4,63.1,30.04,South,169,2.0,2.0,89,0.00,,,0.05,0,Wunderground v.1.15,2013-05-18 03:40:00,
2013-05-17 23:50:00,66.4,63.1,30.04,South,170,1.0,1.0,89,0.00,,,0.05,0,Wunderground v.1.15,2013-05-18 03:50:00,